Terminal Aerodrome Forecast
Issued by NWS

Home | Current Version | Previous Version | Text Only | Print | Product List | Glossary On
Versions: 1 2 3 4 5 6 7 8 9 10 11 12 13
000
FTUS45 KGJT 221131
TAFVEL
TAF
KVEL 221131Z 2212/2312 VRB03KT P6SM FEW200
     FM222000 29006KT P6SM SCT200
     FM222300 36010KT P6SM SCT140
     FM230300 03015KT P6SM BKN110
     FM230500 03012KT P6SM SCT100
     FM230900 35004KT P6SM SCT150=

USA.gov is the U.S. government's official web portal to all federal, state and local government web resources and services.